sensor_id;sensor_type;location;lat;lon;timestamp;P1;durP1;ratioP1;P2;durP2;ratioP2
51499;SDS011;39101;53.478;6.158;2023-07-13T00:01:27;16.92;;;4.82;;
51499;SDS011;39101;53.478;6.158;2023-07-13T00:03:54;17.60;;;4.30;;
51499;SDS011;39101;53.478;6.158;2023-07-13T00:06:21;22.65;;;4.85;;
51499;SDS011;39101;53.478;6.158;2023-07-13T00:08:47;18.73;;;4.45;;
51499;SDS011;39101;53.478;6.158;2023-07-13T00:11:14;19.88;;;4.80;;
51499;SDS011;39101;53.478;6.158;2023-07-13T00:13:41;20.17;;;4.05;;
51499;SDS011;39101;53.478;6.158;2023-07-13T00:16:08;18.25;;;4.22;;
51499;SDS011;39101;53.478;6.158;2023-07-13T00:18:34;13.20;;;4.07;;
51499;SDS011;39101;53.478;6.158;2023-07-13T00:21:00;17.00;;;4.25;;
51499;SDS011;39101;53.478;6.158;2023-07-13T00:23:34;16.38;;;3.65;;
51499;SDS011;39101;53.478;6.158;2023-07-13T00:26:01;13.40;;;3.38;;
51499;SDS011;39101;53.478;6.158;2023-07-13T00:28:28;12.85;;;4.15;;
51499;SDS011;39101;53.478;6.158;2023-07-13T00:30:54;18.35;;;5.20;;
51499;SDS011;39101;53.478;6.158;2023-07-13T00:33:20;15.77;;;4.25;;
51499;SDS011;39101;53.478;6.158;2023-07-13T00:35:46;15.65;;;4.22;;
51499;SDS011;39101;53.478;6.158;2023-07-13T00:38:12;14.30;;;4.30;;
51499;SDS011;39101;53.478;6.158;2023-07-13T00:40:38;10.55;;;3.75;;
51499;SDS011;39101;53.478;6.158;2023-07-13T00:43:08;8.77;;;3.35;;
51499;SDS011;39101;53.478;6.158;2023-07-13T00:48:09;10.68;;;3.92;;
51499;SDS011;39101;53.478;6.158;2023-07-13T00:50:44;10.70;;;3.83;;
51499;SDS011;39101;53.478;6.158;2023-07-13T00:53:13;9.48;;;3.20;;
51499;SDS011;39101;53.478;6.158;2023-07-13T00:55:39;7.72;;;2.67;;
51499;SDS011;39101;53.478;6.158;2023-07-13T00:58:05;9.55;;;1.98;;
51499;SDS011;39101;53.478;6.158;2023-07-13T01:00:32;8.30;;;1.90;;
51499;SDS011;39101;53.478;6.158;2023-07-13T01:05:29;7.72;;;1.70;;
51499;SDS011;39101;53.478;6.158;2023-07-13T01:07:57;5.93;;;1.30;;
51499;SDS011;39101;53.478;6.158;2023-07-13T01:10:24;6.05;;;1.85;;
51499;SDS011;39101;53.478;6.158;2023-07-13T01:12:51;4.63;;;1.40;;
51499;SDS011;39101;53.478;6.158;2023-07-13T01:18:07;5.35;;;1.30;;
51499;SDS011;39101;53.478;6.158;2023-07-13T01:20:38;4.45;;;1.35;;
51499;SDS011;39101;53.478;6.158;2023-07-13T01:23:05;4.70;;;1.63;;
51499;SDS011;39101;53.478;6.158;2023-07-13T01:25:33;4.80;;;1.13;;
51499;SDS011;39101;53.478;6.158;2023-07-13T01:28:00;5.53;;;1.50;;
51499;SDS011;39101;53.478;6.158;2023-07-13T01:30:28;6.10;;;1.30;;
51499;SDS011;39101;53.478;6.158;2023-07-13T01:32:54;5.50;;;1.35;;
51499;SDS011;39101;53.478;6.158;2023-07-13T01:35:19;4.93;;;1.23;;
51499;SDS011;39101;53.478;6.158;2023-07-13T01:37:45;4.90;;;1.27;;
51499;SDS011;39101;53.478;6.158;2023-07-13T01:40:11;4.93;;;1.48;;
51499;SDS011;39101;53.478;6.158;2023-07-13T01:42:37;5.78;;;1.10;;
51499;SDS011;39101;53.478;6.158;2023-07-13T01:45:03;6.45;;;1.75;;
51499;SDS011;39101;53.478;6.158;2023-07-13T01:47:30;8.88;;;1.45;;
51499;SDS011;39101;53.478;6.158;2023-07-13T01:49:56;7.78;;;1.50;;
51499;SDS011;39101;53.478;6.158;2023-07-13T01:52:22;4.07;;;1.42;;
51499;SDS011;39101;53.478;6.158;2023-07-13T01:54:48;5.57;;;1.40;;
51499;SDS011;39101;53.478;6.158;2023-07-13T01:57:14;4.55;;;1.40;;
51499;SDS011;39101;53.478;6.158;2023-07-13T01:59:40;6.60;;;1.42;;
51499;SDS011;39101;53.478;6.158;2023-07-13T02:02:06;8.85;;;1.70;;
51499;SDS011;39101;53.478;6.158;2023-07-13T02:04:32;5.40;;;1.30;;
51499;SDS011;39101;53.478;6.158;2023-07-13T02:06:59;4.32;;;1.30;;
51499;SDS011;39101;53.478;6.158;2023-07-13T02:09:24;4.90;;;1.33;;
51499;SDS011;39101;53.478;6.158;2023-07-13T02:11:50;3.60;;;1.20;;
51499;SDS011;39101;53.478;6.158;2023-07-13T02:14:16;8.13;;;2.10;;
51499;SDS011;39101;53.478;6.158;2023-07-13T02:16:42;5.55;;;1.50;;
51499;SDS011;39101;53.478;6.158;2023-07-13T02:19:07;6.03;;;1.50;;
51499;SDS011;39101;53.478;6.158;2023-07-13T02:21:33;6.07;;;1.63;;
51499;SDS011;39101;53.478;6.158;2023-07-13T02:24:02;6.15;;;1.02;;
51499;SDS011;39101;53.478;6.158;2023-07-13T02:26:28;9.50;;;2.00;;
51499;SDS011;39101;53.478;6.158;2023-07-13T02:28:54;9.70;;;3.10;;
51499;SDS011;39101;53.478;6.158;2023-07-13T02:31:19;11.27;;;2.10;;
51499;SDS011;39101;53.478;6.158;2023-07-13T02:33:45;7.78;;;2.13;;
51499;SDS011;39101;53.478;6.158;2023-07-13T02:36:11;7.45;;;1.73;;
51499;SDS011;39101;53.478;6.158;2023-07-13T02:38:37;12.57;;;2.47;;
51499;SDS011;39101;53.478;6.158;2023-07-13T02:41:03;18.00;;;3.30;;
51499;SDS011;39101;53.478;6.158;2023-07-13T02:43:30;16.50;;;2.47;;
51499;SDS011;39101;53.478;6.158;2023-07-13T02:45:56;18.20;;;2.75;;
51499;SDS011;39101;53.478;6.158;2023-07-13T02:48:25;26.88;;;3.28;;
51499;SDS011;39101;53.478;6.158;2023-07-13T02:50:51;20.90;;;3.30;;
51499;SDS011;39101;53.478;6.158;2023-07-13T02:53:16;17.25;;;3.13;;
51499;SDS011;39101;53.478;6.158;2023-07-13T02:55:42;10.05;;;1.80;;
51499;SDS011;39101;53.478;6.158;2023-07-13T02:58:12;12.63;;;2.10;;
51499;SDS011;39101;53.478;6.158;2023-07-13T03:00:41;11.77;;;4.00;;
51499;SDS011;39101;53.478;6.158;2023-07-13T03:03:08;17.13;;;2.85;;
51499;SDS011;39101;53.478;6.158;2023-07-13T03:05:33;13.43;;;2.40;;
51499;SDS011;39101;53.478;6.158;2023-07-13T03:07:59;12.35;;;2.28;;
51499;SDS011;39101;53.478;6.158;2023-07-13T03:10:24;12.60;;;2.47;;
51499;SDS011;39101;53.478;6.158;2023-07-13T03:12:50;12.48;;;2.65;;
51499;SDS011;39101;53.478;6.158;2023-07-13T03:15:16;17.35;;;3.03;;
51499;SDS011;39101;53.478;6.158;2023-07-13T03:17:41;6.32;;;2.08;;
51499;SDS011;39101;53.478;6.158;2023-07-13T03:20:07;8.77;;;2.42;;
51499;SDS011;39101;53.478;6.158;2023-07-13T03:22:33;10.85;;;2.70;;
51499;SDS011;39101;53.478;6.158;2023-07-13T03:24:59;6.95;;;2.20;;
51499;SDS011;39101;53.478;6.158;2023-07-13T03:27:25;10.85;;;2.83;;
51499;SDS011;39101;53.478;6.158;2023-07-13T03:29:50;11.07;;;2.42;;
51499;SDS011;39101;53.478;6.158;2023-07-13T03:32:16;9.57;;;2.25;;
51499;SDS011;39101;53.478;6.158;2023-07-13T03:34:42;9.25;;;2.50;;
51499;SDS011;39101;53.478;6.158;2023-07-13T03:37:07;9.80;;;2.17;;
51499;SDS011;39101;53.478;6.158;2023-07-13T03:39:33;7.90;;;2.50;;
51499;SDS011;39101;53.478;6.158;2023-07-13T03:41:58;13.38;;;2.78;;
51499;SDS011;39101;53.478;6.158;2023-07-13T03:44:24;9.25;;;2.72;;
51499;SDS011;39101;53.478;6.158;2023-07-13T03:46:50;9.65;;;2.63;;
51499;SDS011;39101;53.478;6.158;2023-07-13T03:49:15;8.77;;;2.08;;
51499;SDS011;39101;53.478;6.158;2023-07-13T03:51:41;9.23;;;2.72;;
51499;SDS011;39101;53.478;6.158;2023-07-13T03:54:07;16.45;;;3.10;;
51499;SDS011;39101;53.478;6.158;2023-07-13T03:56:32;12.55;;;3.05;;
51499;SDS011;39101;53.478;6.158;2023-07-13T03:58:58;9.05;;;2.60;;
51499;SDS011;39101;53.478;6.158;2023-07-13T04:01:25;12.57;;;2.88;;
51499;SDS011;39101;53.478;6.158;2023-07-13T04:03:51;11.07;;;2.20;;
51499;SDS011;39101;53.478;6.158;2023-07-13T04:06:25;9.57;;;2.90;;
51499;SDS011;39101;53.478;6.158;2023-07-13T04:08:53;10.45;;;2.67;;
51499;SDS011;39101;53.478;6.158;2023-07-13T04:11:21;13.75;;;3.25;;
51499;SDS011;39101;53.478;6.158;2023-07-13T04:13:48;13.32;;;2.83;;
51499;SDS011;39101;53.478;6.158;2023-07-13T04:16:14;17.63;;;3.58;;
51499;SDS011;39101;53.478;6.158;2023-07-13T04:18:42;18.55;;;3.45;;
51499;SDS011;39101;53.478;6.158;2023-07-13T04:21:08;13.60;;;3.13;;
51499;SDS011;39101;53.478;6.158;2023-07-13T04:23:35;12.05;;;3.85;;
51499;SDS011;39101;53.478;6.158;2023-07-13T04:26:02;11.10;;;3.83;;
51499;SDS011;39101;53.478;6.158;2023-07-13T04:28:27;12.75;;;3.05;;
51499;SDS011;39101;53.478;6.158;2023-07-13T04:30:53;10.48;;;3.25;;
51499;SDS011;39101;53.478;6.158;2023-07-13T04:33:19;15.43;;;3.70;;
51499;SDS011;39101;53.478;6.158;2023-07-13T04:35:51;15.77;;;3.63;;
51499;SDS011;39101;53.478;6.158;2023-07-13T04:38:19;14.48;;;3.78;;
51499;SDS011;39101;53.478;6.158;2023-07-13T04:40:46;10.35;;;3.38;;
51499;SDS011;39101;53.478;6.158;2023-07-13T04:43:12;8.80;;;2.92;;
51499;SDS011;39101;53.478;6.158;2023-07-13T04:45:38;9.80;;;3.42;;
51499;SDS011;39101;53.478;6.158;2023-07-13T04:48:03;11.10;;;3.15;;
51499;SDS011;39101;53.478;6.158;2023-07-13T04:50:29;14.30;;;3.58;;
51499;SDS011;39101;53.478;6.158;2023-07-13T04:52:55;10.88;;;3.35;;
51499;SDS011;39101;53.478;6.158;2023-07-13T04:55:21;15.80;;;3.20;;
51499;SDS011;39101;53.478;6.158;2023-07-13T04:57:46;13.98;;;3.53;;
51499;SDS011;39101;53.478;6.158;2023-07-13T05:00:13;11.75;;;3.63;;
51499;SDS011;39101;53.478;6.158;2023-07-13T05:02:40;9.75;;;3.75;;
51499;SDS011;39101;53.478;6.158;2023-07-13T05:05:08;9.50;;;3.58;;
51499;SDS011;39101;53.478;6.158;2023-07-13T05:07:34;11.55;;;3.78;;
51499;SDS011;39101;53.478;6.158;2023-07-13T05:10:00;10.25;;;2.88;;
51499;SDS011;39101;53.478;6.158;2023-07-13T05:12:26;11.45;;;3.00;;
51499;SDS011;39101;53.478;6.158;2023-07-13T05:14:52;12.18;;;2.75;;
51499;SDS011;39101;53.478;6.158;2023-07-13T05:17:17;12.05;;;2.67;;
51499;SDS011;39101;53.478;6.158;2023-07-13T05:19:43;10.48;;;2.90;;
51499;SDS011;39101;53.478;6.158;2023-07-13T05:22:09;5.97;;;1.52;;
51499;SDS011;39101;53.478;6.158;2023-07-13T05:24:35;4.97;;;2.50;;
51499;SDS011;39101;53.478;6.158;2023-07-13T05:27:00;7.05;;;1.45;;
51499;SDS011;39101;53.478;6.158;2023-07-13T05:29:26;6.30;;;1.85;;
51499;SDS011;39101;53.478;6.158;2023-07-13T05:31:52;8.82;;;1.60;;
51499;SDS011;39101;53.478;6.158;2023-07-13T05:34:18;5.45;;;1.77;;
51499;SDS011;39101;53.478;6.158;2023-07-13T05:36:44;8.27;;;1.85;;
51499;SDS011;39101;53.478;6.158;2023-07-13T05:39:10;9.32;;;1.70;;
51499;SDS011;39101;53.478;6.158;2023-07-13T05:41:36;8.35;;;1.58;;
51499;SDS011;39101;53.478;6.158;2023-07-13T05:44:02;9.13;;;1.95;;
51499;SDS011;39101;53.478;6.158;2023-07-13T05:46:28;5.72;;;1.40;;
51499;SDS011;39101;53.478;6.158;2023-07-13T05:48:54;8.18;;;1.80;;
51499;SDS011;39101;53.478;6.158;2023-07-13T05:51:19;4.75;;;1.20;;
51499;SDS011;39101;53.478;6.158;2023-07-13T05:53:45;6.65;;;1.60;;
51499;SDS011;39101;53.478;6.158;2023-07-13T05:56:11;6.55;;;1.50;;
51499;SDS011;39101;53.478;6.158;2023-07-13T05:58:37;5.60;;;1.58;;
51499;SDS011;39101;53.478;6.158;2023-07-13T06:01:04;9.77;;;1.95;;
51499;SDS011;39101;53.478;6.158;2023-07-13T06:03:32;5.00;;;1.45;;
51499;SDS011;39101;53.478;6.158;2023-07-13T06:05:58;5.38;;;1.40;;
51499;SDS011;39101;53.478;6.158;2023-07-13T06:08:27;9.27;;;1.33;;
51499;SDS011;39101;53.478;6.158;2023-07-13T06:10:53;5.05;;;1.73;;
51499;SDS011;39101;53.478;6.158;2023-07-13T06:13:19;6.10;;;1.50;;
51499;SDS011;39101;53.478;6.158;2023-07-13T06:15:51;4.63;;;1.77;;
51499;SDS011;39101;53.478;6.158;2023-07-13T06:18:16;5.32;;;1.60;;
51499;SDS011;39101;53.478;6.158;2023-07-13T06:20:42;7.75;;;1.40;;
51499;SDS011;39101;53.478;6.158;2023-07-13T06:23:08;6.35;;;1.70;;
51499;SDS011;39101;53.478;6.158;2023-07-13T06:25:33;6.05;;;2.60;;
51499;SDS011;39101;53.478;6.158;2023-07-13T06:27:59;7.22;;;2.10;;
51499;SDS011;39101;53.478;6.158;2023-07-13T06:30:25;7.78;;;1.75;;
51499;SDS011;39101;53.478;6.158;2023-07-13T06:32:51;6.63;;;2.13;;
51499;SDS011;39101;53.478;6.158;2023-07-13T06:35:17;9.55;;;1.50;;
51499;SDS011;39101;53.478;6.158;2023-07-13T06:37:43;8.07;;;1.40;;
51499;SDS011;39101;53.478;6.158;2023-07-13T06:40:09;4.53;;;1.35;;
51499;SDS011;39101;53.478;6.158;2023-07-13T06:42:35;8.13;;;1.83;;
51499;SDS011;39101;53.478;6.158;2023-07-13T06:45:01;5.38;;;1.38;;
51499;SDS011;39101;53.478;6.158;2023-07-13T06:47:27;5.90;;;1.40;;
51499;SDS011;39101;53.478;6.158;2023-07-13T06:49:52;5.32;;;1.35;;
51499;SDS011;39101;53.478;6.158;2023-07-13T06:52:18;4.10;;;1.38;;
51499;SDS011;39101;53.478;6.158;2023-07-13T06:54:44;8.25;;;1.73;;
51499;SDS011;39101;53.478;6.158;2023-07-13T06:57:09;6.40;;;1.70;;
51499;SDS011;39101;53.478;6.158;2023-07-13T06:59:35;6.00;;;1.73;;
51499;SDS011;39101;53.478;6.158;2023-07-13T07:02:01;5.38;;;1.50;;
51499;SDS011;39101;53.478;6.158;2023-07-13T07:04:26;5.30;;;1.75;;
51499;SDS011;39101;53.478;6.158;2023-07-13T07:06:52;5.88;;;1.35;;
51499;SDS011;39101;53.478;6.158;2023-07-13T07:09:18;6.15;;;1.33;;
51499;SDS011;39101;53.478;6.158;2023-07-13T07:11:43;4.88;;;1.52;;
51499;SDS011;39101;53.478;6.158;2023-07-13T07:14:09;7.35;;;1.55;;
51499;SDS011;39101;53.478;6.158;2023-07-13T07:16:35;8.30;;;1.52;;
51499;SDS011;39101;53.478;6.158;2023-07-13T07:19:00;6.18;;;1.77;;
51499;SDS011;39101;53.478;6.158;2023-07-13T07:21:26;6.82;;;1.60;;
51499;SDS011;39101;53.478;6.158;2023-07-13T07:23:52;9.23;;;1.92;;
51499;SDS011;39101;53.478;6.158;2023-07-13T07:26:18;3.88;;;1.40;;
51499;SDS011;39101;53.478;6.158;2023-07-13T07:28:44;5.20;;;1.42;;
51499;SDS011;39101;53.478;6.158;2023-07-13T07:31:09;4.47;;;1.40;;
51499;SDS011;39101;53.478;6.158;2023-07-13T07:33:35;5.70;;;1.73;;
51499;SDS011;39101;53.478;6.158;2023-07-13T07:36:01;5.53;;;1.30;;
51499;SDS011;39101;53.478;6.158;2023-07-13T07:38:27;4.75;;;1.17;;
51499;SDS011;39101;53.478;6.158;2023-07-13T07:40:53;4.72;;;1.27;;
51499;SDS011;39101;53.478;6.158;2023-07-13T07:43:18;6.05;;;1.20;;
51499;SDS011;39101;53.478;6.158;2023-07-13T07:45:44;4.18;;;1.85;;
51499;SDS011;39101;53.478;6.158;2023-07-13T07:48:10;3.97;;;1.15;;
51499;SDS011;39101;53.478;6.158;2023-07-13T07:50:36;6.30;;;1.30;;
51499;SDS011;39101;53.478;6.158;2023-07-13T07:53:03;5.30;;;1.15;;
51499;SDS011;39101;53.478;6.158;2023-07-13T07:55:32;2.67;;;1.15;;
51499;SDS011;39101;53.478;6.158;2023-07-13T07:58:00;4.28;;;1.52;;
51499;SDS011;39101;53.478;6.158;2023-07-13T08:00:26;4.30;;;1.50;;
51499;SDS011;39101;53.478;6.158;2023-07-13T08:02:55;4.30;;;1.20;;
51499;SDS011;39101;53.478;6.158;2023-07-13T08:05:21;4.55;;;1.30;;
51499;SDS011;39101;53.478;6.158;2023-07-13T08:07:46;4.28;;;1.13;;
51499;SDS011;39101;53.478;6.158;2023-07-13T08:10:12;5.18;;;1.48;;
51499;SDS011;39101;53.478;6.158;2023-07-13T08:12:38;3.92;;;1.38;;
51499;SDS011;39101;53.478;6.158;2023-07-13T08:15:05;3.05;;;1.10;;
51499;SDS011;39101;53.478;6.158;2023-07-13T08:17:34;4.10;;;1.30;;
51499;SDS011;39101;53.478;6.158;2023-07-13T08:20:00;2.03;;;0.95;;
51499;SDS011;39101;53.478;6.158;2023-07-13T08:22:26;5.07;;;1.77;;
51499;SDS011;39101;53.478;6.158;2023-07-13T08:24:52;5.65;;;1.40;;
51499;SDS011;39101;53.478;6.158;2023-07-13T08:27:24;3.50;;;1.33;;
51499;SDS011;39101;53.478;6.158;2023-07-13T08:29:52;5.43;;;1.20;;
51499;SDS011;39101;53.478;6.158;2023-07-13T08:32:19;3.35;;;1.13;;
51499;SDS011;39101;53.478;6.158;2023-07-13T08:34:46;6.82;;;1.40;;
51499;SDS011;39101;53.478;6.158;2023-07-13T08:37:12;4.78;;;1.58;;
51499;SDS011;39101;53.478;6.158;2023-07-13T08:39:38;4.35;;;2.10;;
51499;SDS011;39101;53.478;6.158;2023-07-13T08:42:07;7.10;;;1.90;;
51499;SDS011;39101;53.478;6.158;2023-07-13T08:47:48;4.20;;;1.38;;
51499;SDS011;39101;53.478;6.158;2023-07-13T08:50:21;4.05;;;1.17;;
51499;SDS011;39101;53.478;6.158;2023-07-13T08:52:55;2.47;;;1.00;;
51499;SDS011;39101;53.478;6.158;2023-07-13T08:55:29;4.82;;;1.08;;
51499;SDS011;39101;53.478;6.158;2023-07-13T08:58:03;5.72;;;1.42;;
51499;SDS011;39101;53.478;6.158;2023-07-13T09:03:19;8.00;;;1.98;;
51499;SDS011;39101;53.478;6.158;2023-07-13T09:05:50;5.80;;;1.42;;
51499;SDS011;39101;53.478;6.158;2023-07-13T09:09:07;3.92;;;1.02;;
51499;SDS011;39101;53.478;6.158;2023-07-13T09:14:06;4.95;;;1.40;;
51499;SDS011;39101;53.478;6.158;2023-07-13T09:16:46;6.05;;;1.70;;
51499;SDS011;39101;53.478;6.158;2023-07-13T09:19:16;7.90;;;1.80;;
51499;SDS011;39101;53.478;6.158;2023-07-13T09:21:48;5.57;;;1.45;;
51499;SDS011;39101;53.478;6.158;2023-07-13T09:27:17;8.93;;;2.22;;
51499;SDS011;39101;53.478;6.158;2023-07-13T09:32:47;3.72;;;1.90;;
51499;SDS011;39101;53.478;6.158;2023-07-13T09:35:16;9.18;;;1.75;;
51499;SDS011;39101;53.478;6.158;2023-07-13T09:37:46;3.40;;;1.42;;
51499;SDS011;39101;53.478;6.158;2023-07-13T09:40:25;9.02;;;1.73;;
51499;SDS011;39101;53.478;6.158;2023-07-13T09:43:08;4.47;;;1.25;;
51499;SDS011;39101;53.478;6.158;2023-07-13T09:45:38;7.20;;;1.30;;
51499;SDS011;39101;53.478;6.158;2023-07-13T09:48:11;3.67;;;1.40;;
51499;SDS011;39101;53.478;6.158;2023-07-13T09:50:38;3.65;;;1.13;;
51499;SDS011;39101;53.478;6.158;2023-07-13T09:53:09;3.63;;;1.10;;
51499;SDS011;39101;53.478;6.158;2023-07-13T09:55:38;5.38;;;0.90;;
51499;SDS011;39101;53.478;6.158;2023-07-13T10:03:28;3.72;;;0.95;;
51499;SDS011;39101;53.478;6.158;2023-07-13T10:06:01;4.00;;;1.38;;
51499;SDS011;39101;53.478;6.158;2023-07-13T10:08:40;4.47;;;1.52;;
51499;SDS011;39101;53.478;6.158;2023-07-13T10:11:19;5.35;;;1.42;;
51499;SDS011;39101;53.478;6.158;2023-07-13T10:13:55;3.55;;;0.90;;
51499;SDS011;39101;53.478;6.158;2023-07-13T10:16:26;6.80;;;1.20;;
51499;SDS011;39101;53.478;6.158;2023-07-13T10:19:10;5.43;;;1.20;;
51499;SDS011;39101;53.478;6.158;2023-07-13T10:21:39;7.32;;;1.30;;
51499;SDS011;39101;53.478;6.158;2023-07-13T10:24:32;2.80;;;1.10;;
51499;SDS011;39101;53.478;6.158;2023-07-13T10:27:08;6.07;;;1.42;;
51499;SDS011;39101;53.478;6.158;2023-07-13T10:29:58;4.70;;;1.30;;
51499;SDS011;39101;53.478;6.158;2023-07-13T10:32:38;7.00;;;1.17;;
51499;SDS011;39101;53.478;6.158;2023-07-13T10:35:05;6.95;;;1.45;;
51499;SDS011;39101;53.478;6.158;2023-07-13T10:38:18;5.38;;;1.25;;
51499;SDS011;39101;53.478;6.158;2023-07-13T10:45:50;6.05;;;1.52;;
51499;SDS011;39101;53.478;6.158;2023-07-13T10:48:16;6.32;;;1.83;;
51499;SDS011;39101;53.478;6.158;2023-07-13T10:50:44;6.22;;;1.75;;
51499;SDS011;39101;53.478;6.158;2023-07-13T10:53:31;7.13;;;2.00;;
51499;SDS011;39101;53.478;6.158;2023-07-13T11:01:03;4.63;;;1.88;;
51499;SDS011;39101;53.478;6.158;2023-07-13T11:03:33;3.50;;;1.50;;
51499;SDS011;39101;53.478;6.158;2023-07-13T11:06:33;5.63;;;1.65;;
51499;SDS011;39101;53.478;6.158;2023-07-13T11:09:50;4.97;;;2.17;;
51499;SDS011;39101;53.478;6.158;2023-07-13T11:12:01;3.28;;;1.30;;
51499;SDS011;39101;53.478;6.158;2023-07-13T11:19:53;9.00;;;2.88;;
51499;SDS011;39101;53.478;6.158;2023-07-13T11:27:52;6.57;;;1.60;;
51499;SDS011;39101;53.478;6.158;2023-07-13T11:30:41;7.45;;;1.60;;
51499;SDS011;39101;53.478;6.158;2023-07-13T11:33:15;8.63;;;2.90;;
51499;SDS011;39101;53.478;6.158;2023-07-13T11:35:44;6.10;;;1.80;;
51499;SDS011;39101;53.478;6.158;2023-07-13T11:38:17;9.70;;;1.80;;
51499;SDS011;39101;53.478;6.158;2023-07-13T11:40:46;8.82;;;1.70;;
51499;SDS011;39101;53.478;6.158;2023-07-13T11:43:14;8.02;;;1.52;;
51499;SDS011;39101;53.478;6.158;2023-07-13T11:45:41;11.15;;;2.33;;
51499;SDS011;39101;53.478;6.158;2023-07-13T11:48:21;7.43;;;1.90;;
51499;SDS011;39101;53.478;6.158;2023-07-13T11:50:53;11.90;;;2.00;;
51499;SDS011;39101;53.478;6.158;2023-07-13T11:53:27;7.22;;;2.17;;
51499;SDS011;39101;53.478;6.158;2023-07-13T11:55:56;11.15;;;2.13;;
51499;SDS011;39101;53.478;6.158;2023-07-13T11:58:23;7.72;;;1.77;;
51499;SDS011;39101;53.478;6.158;2023-07-13T12:00:53;8.00;;;1.92;;
51499;SDS011;39101;53.478;6.158;2023-07-13T12:03:21;10.52;;;2.63;;
51499;SDS011;39101;53.478;6.158;2023-07-13T12:05:56;13.43;;;2.72;;
51499;SDS011;39101;53.478;6.158;2023-07-13T12:08:31;12.77;;;2.70;;
51499;SDS011;39101;53.478;6.158;2023-07-13T12:11:06;8.15;;;1.80;;
51499;SDS011;39101;53.478;6.158;2023-07-13T12:13:43;9.55;;;2.20;;
51499;SDS011;39101;53.478;6.158;2023-07-13T12:16:15;10.35;;;2.22;;
51499;SDS011;39101;53.478;6.158;2023-07-13T12:18:59;10.93;;;2.33;;
51499;SDS011;39101;53.478;6.158;2023-07-13T12:21:28;8.32;;;3.05;;
51499;SDS011;39101;53.478;6.158;2023-07-13T12:23:56;11.25;;;2.40;;
51499;SDS011;39101;53.478;6.158;2023-07-13T12:26:22;7.30;;;2.22;;
51499;SDS011;39101;53.478;6.158;2023-07-13T12:28:49;10.02;;;2.42;;
51499;SDS011;39101;53.478;6.158;2023-07-13T12:34:12;11.98;;;2.60;;
51499;SDS011;39101;53.478;6.158;2023-07-13T12:36:45;9.15;;;2.67;;
51499;SDS011;39101;53.478;6.158;2023-07-13T12:41:42;9.43;;;2.50;;
51499;SDS011;39101;53.478;6.158;2023-07-13T12:44:10;10.88;;;3.72;;
51499;SDS011;39101;53.478;6.158;2023-07-13T12:46:38;7.85;;;2.63;;
51499;SDS011;39101;53.478;6.158;2023-07-13T12:49:05;8.68;;;2.63;;
51499;SDS011;39101;53.478;6.158;2023-07-13T12:51:32;18.33;;;2.92;;
51499;SDS011;39101;53.478;6.158;2023-07-13T12:54:17;9.73;;;2.63;;
51499;SDS011;39101;53.478;6.158;2023-07-13T12:56:44;7.78;;;2.35;;
51499;SDS011;39101;53.478;6.158;2023-07-13T12:59:16;9.25;;;2.70;;
51499;SDS011;39101;53.478;6.158;2023-07-13T13:01:43;10.68;;;3.08;;
51499;SDS011;39101;53.478;6.158;2023-07-13T13:04:09;7.88;;;2.35;;
51499;SDS011;39101;53.478;6.158;2023-07-13T13:06:36;16.33;;;3.00;;
51499;SDS011;39101;53.478;6.158;2023-07-13T13:09:02;8.95;;;2.90;;
51499;SDS011;39101;53.478;6.158;2023-07-13T13:11:29;9.23;;;2.85;;
51499;SDS011;39101;53.478;6.158;2023-07-13T13:13:56;11.40;;;3.25;;
51499;SDS011;39101;53.478;6.158;2023-07-13T13:18:54;11.35;;;2.85;;
51499;SDS011;39101;53.478;6.158;2023-07-13T13:21:22;10.68;;;3.80;;
51499;SDS011;39101;53.478;6.158;2023-07-13T13:23:49;11.05;;;2.42;;
51499;SDS011;39101;53.478;6.158;2023-07-13T13:26:16;13.80;;;2.30;;
51499;SDS011;39101;53.478;6.158;2023-07-13T13:28:43;12.05;;;2.80;;
51499;SDS011;39101;53.478;6.158;2023-07-13T13:31:09;12.40;;;2.85;;
51499;SDS011;39101;53.478;6.158;2023-07-13T13:33:43;13.60;;;3.03;;
51499;SDS011;39101;53.478;6.158;2023-07-13T13:36:18;21.92;;;3.85;;
51499;SDS011;39101;53.478;6.158;2023-07-13T13:38:45;10.50;;;2.55;;
51499;SDS011;39101;53.478;6.158;2023-07-13T13:41:13;9.70;;;2.55;;
51499;SDS011;39101;53.478;6.158;2023-07-13T13:43:39;7.15;;;2.58;;
51499;SDS011;39101;53.478;6.158;2023-07-13T13:46:14;7.43;;;2.40;;
51499;SDS011;39101;53.478;6.158;2023-07-13T13:48:42;10.98;;;2.20;;
51499;SDS011;39101;53.478;6.158;2023-07-13T13:51:13;9.35;;;2.65;;
51499;SDS011;39101;53.478;6.158;2023-07-13T13:53:47;11.25;;;2.70;;
51499;SDS011;39101;53.478;6.158;2023-07-13T13:56:14;9.30;;;2.60;;
51499;SDS011;39101;53.478;6.158;2023-07-13T13:58:40;10.52;;;2.20;;
51499;SDS011;39101;53.478;6.158;2023-07-13T14:01:13;8.98;;;2.80;;
51499;SDS011;39101;53.478;6.158;2023-07-13T14:03:44;7.93;;;2.75;;
51499;SDS011;39101;53.478;6.158;2023-07-13T14:06:13;15.30;;;3.55;;
51499;SDS011;39101;53.478;6.158;2023-07-13T14:08:41;9.75;;;3.22;;
51499;SDS011;39101;53.478;6.158;2023-07-13T14:11:09;8.45;;;2.70;;
51499;SDS011;39101;53.478;6.158;2023-07-13T14:13:42;8.05;;;2.58;;
51499;SDS011;39101;53.478;6.158;2023-07-13T14:16:12;11.80;;;2.83;;
51499;SDS011;39101;53.478;6.158;2023-07-13T14:18:47;9.73;;;2.65;;
51499;SDS011;39101;53.478;6.158;2023-07-13T14:21:15;9.27;;;2.22;;
51499;SDS011;39101;53.478;6.158;2023-07-13T14:23:44;9.00;;;2.83;;
51499;SDS011;39101;53.478;6.158;2023-07-13T14:26:14;12.98;;;3.50;;
51499;SDS011;39101;53.478;6.158;2023-07-13T14:28:46;8.32;;;2.33;;
51499;SDS011;39101;53.478;6.158;2023-07-13T14:31:14;5.95;;;2.40;;
51499;SDS011;39101;53.478;6.158;2023-07-13T14:33:41;13.82;;;3.35;;
51499;SDS011;39101;53.478;6.158;2023-07-13T14:38:59;9.63;;;2.50;;
51499;SDS011;39101;53.478;6.158;2023-07-13T14:41:36;10.60;;;2.80;;
51499;SDS011;39101;53.478;6.158;2023-07-13T14:44:07;8.48;;;2.97;;
51499;SDS011;39101;53.478;6.158;2023-07-13T14:46:36;13.32;;;2.42;;
51499;SDS011;39101;53.478;6.158;2023-07-13T14:51:30;12.02;;;2.80;;
51499;SDS011;39101;53.478;6.158;2023-07-13T14:53:56;10.73;;;2.83;;
51499;SDS011;39101;53.478;6.158;2023-07-13T14:56:22;12.77;;;3.15;;
51499;SDS011;39101;53.478;6.158;2023-07-13T14:58:48;10.85;;;2.65;;
51499;SDS011;39101;53.478;6.158;2023-07-13T15:01:13;9.20;;;2.70;;
51499;SDS011;39101;53.478;6.158;2023-07-13T15:03:42;12.30;;;2.67;;
51499;SDS011;39101;53.478;6.158;2023-07-13T15:06:13;12.20;;;2.63;;
51499;SDS011;39101;53.478;6.158;2023-07-13T15:08:39;7.05;;;2.10;;
51499;SDS011;39101;53.478;6.158;2023-07-13T15:11:08;7.32;;;2.05;;
51499;SDS011;39101;53.478;6.158;2023-07-13T15:13:37;7.55;;;2.05;;
51499;SDS011;39101;53.478;6.158;2023-07-13T15:18:43;10.70;;;2.25;;
51499;SDS011;39101;53.478;6.158;2023-07-13T15:21:10;9.82;;;2.58;;
51499;SDS011;39101;53.478;6.158;2023-07-13T15:23:45;8.98;;;2.17;;
51499;SDS011;39101;53.478;6.158;2023-07-13T15:26:12;10.15;;;2.35;;
51499;SDS011;39101;53.478;6.158;2023-07-13T15:28:39;9.30;;;2.67;;
51499;SDS011;39101;53.478;6.158;2023-07-13T15:31:11;10.43;;;1.90;;
51499;SDS011;39101;53.478;6.158;2023-07-13T15:33:47;10.70;;;1.70;;
51499;SDS011;39101;53.478;6.158;2023-07-13T15:36:15;8.50;;;2.45;;
51499;SDS011;39101;53.478;6.158;2023-07-13T15:38:42;6.50;;;2.03;;
51499;SDS011;39101;53.478;6.158;2023-07-13T15:41:13;5.90;;;1.80;;
51499;SDS011;39101;53.478;6.158;2023-07-13T15:43:50;9.02;;;2.50;;
51499;SDS011;39101;53.478;6.158;2023-07-13T15:46:18;8.43;;;2.10;;
51499;SDS011;39101;53.478;6.158;2023-07-13T15:48:46;8.82;;;2.15;;
51499;SDS011;39101;53.478;6.158;2023-07-13T15:51:19;5.63;;;2.28;;
51499;SDS011;39101;53.478;6.158;2023-07-13T15:53:48;8.63;;;2.00;;
51499;SDS011;39101;53.478;6.158;2023-07-13T15:56:21;7.05;;;1.90;;